Time;durP1;ratioP1;P1;durP2;ratioP2;P2;SDS_P1;SDS_P2;PMS_P1;PMS_P2;Temp;Humidity;BMP_temperature;BMP_pressure;BME280_temperature;BME280_humidity;BME280_pressure;Samples;Min_cycle;Max_cycle;Signal;HPM_P1;HPM_P2
2022/06/29 00:00:46;;;;;;;;;;;;;;;23.52;70.45;99624.59;5035961;28;19921;-68
2022/06/29 00:03:24;;;;;;;;;;;;;;;23.53;70.70;99613.25;5035922;28;19952;-67
2022/06/29 00:05:52;;;;;;;;;;;;;;;23.49;70.67;99604.75;5035663;28;19971;-67
2022/06/29 00:08:21;;;;;;;;;;;;;;;23.47;70.64;99598.78;5035555;28;19921;-67
2022/06/29 00:10:49;;;;;;;;;;;;;;;23.50;70.67;99595.16;5035505;28;19921;-67
2022/06/29 00:13:19;;;;;;;;;;;;;;;23.46;70.76;99594.50;5035385;28;20011;-67
2022/06/29 00:15:48;;;;;;;;;;;;;;;23.45;70.83;99587.63;5035381;28;19928;-67
2022/06/29 00:18:17;;;;;;;;;;;;;;;23.41;70.98;99578.28;5035669;28;20008;-67
2022/06/29 00:20:45;;;;;;;;;;;;;;;23.34;71.14;99571.69;5035081;28;19924;-67
2022/06/29 00:23:14;;;;;;;;;;;;;;;23.30;71.57;99580.59;5035465;28;20333;-67
2022/06/29 00:25:42;;;;;;;;;;;;;;;23.32;71.62;99583.97;5035508;28;19928;-67
2022/06/29 00:28:11;;;;;;;;;;;;;;;23.32;71.45;99579.59;5035181;28;19921;-67
2022/06/29 00:30:41;;;;;;;;;;;;;;;23.32;71.81;99573.56;5035132;28;19920;-67
2022/06/29 00:33:09;;;;;;;;;;;;;;;23.29;71.65;99568.50;5035020;28;19928;-67
2022/06/29 00:35:38;;;;;;;;;;;;;;;23.27;71.60;99565.16;5034983;28;19927;-68
2022/06/29 00:38:07;;;;;;;;;;;;;;;23.31;71.55;99571.88;5035295;28;19925;-67
2022/06/29 00:40:35;;;;;;;;;;;;;;;23.30;71.72;99560.59;5035205;28;20004;-67
2022/06/29 00:43:04;;;;;;;;;;;;;;;23.30;71.81;99562.34;5035199;28;20021;-67
2022/06/29 00:45:32;;;;;;;;;;;;;;;23.30;71.79;99560.59;5034793;28;19921;-67
2022/06/29 00:48:06;;;;;;;;;;;;;;;23.25;71.65;99551.38;5034751;28;19967;-67
2022/06/29 00:50:34;;;;;;;;;;;;;;;23.26;71.93;99547.81;5035498;28;19928;-68
2022/06/29 00:53:04;;;;;;;;;;;;;;;23.27;71.92;99549.53;5034972;28;19967;-67
2022/06/29 00:55:37;;;;;;;;;;;;;;;23.25;71.93;99546.16;5034915;28;20371;-68
2022/06/29 00:58:08;;;;;;;;;;;;;;;23.21;71.92;99549.84;5034954;28;20275;-67
2022/06/29 01:00:39;;;;;;;;;;;;;;;23.19;72.22;99543.88;5034607;28;19931;-67
2022/06/29 01:03:09;;;;;;;;;;;;;;;23.22;72.32;99546.31;5034529;28;19921;-67
2022/06/29 01:05:41;;;;;;;;;;;;;;;23.21;72.47;99542.88;5034681;28;19967;-67
2022/06/29 01:08:13;;;;;;;;;;;;;;;23.21;72.40;99544.63;5034462;28;19921;-67
2022/06/29 01:10:44;;;;;;;;;;;;;;;23.22;72.37;99551.53;5034791;28;19988;-67
2022/06/29 01:13:13;;;;;;;;;;;;;;;23.26;72.18;99537.41;5034118;28;20039;-67
2022/06/29 01:15:44;;;;;;;;;;;;;;;23.25;72.09;99546.97;5034452;28;19968;-67
2022/06/29 01:18:15;;;;;;;;;;;;;;;23.25;72.21;99543.56;5034307;28;20011;-67
2022/06/29 01:20:43;;;;;;;;;;;;;;;23.26;72.07;99542.63;5034610;28;19928;-67
2022/06/29 01:23:13;;;;;;;;;;;;;;;23.24;72.09;99534.06;5016904;28;19921;-67
2022/06/29 01:25:42;;;;;;;;;;;;;;;23.24;72.03;99534.06;5034151;28;20015;-67
2022/06/29 01:28:19;;;;;;;;;;;;;;;23.22;72.21;99525.50;5034120;28;19956;-67
2022/06/29 01:30:48;;;;;;;;;;;;;;;23.21;72.14;99523.78;5034410;28;19921;-67
2022/06/29 01:33:26;;;;;;;;;;;;;;;23.16;72.16;99520.59;5033377;28;19925;-67
2022/06/29 01:35:55;;;;;;;;;;;;;;;23.17;72.05;99522.28;5034295;28;19921;-67
2022/06/29 01:38:24;;;;;;;;;;;;;;;23.15;72.22;99518.94;5033971;28;19921;-67
2022/06/29 01:40:53;;;;;;;;;;;;;;;23.13;72.37;99515.56;5034001;28;19921;-67
2022/06/29 01:43:22;;;;;;;;;;;;;;;23.11;72.02;99517.41;5033936;28;19925;-67
2022/06/29 01:45:50;;;;;;;;;;;;;;;23.09;72.14;99508.84;5034136;28;19921;-67
2022/06/29 01:48:19;;;;;;;;;;;;;;;23.08;71.93;99512.38;5034467;28;19928;-68
2022/06/29 01:50:47;;;;;;;;;;;;;;;23.04;71.97;99516.06;5033847;28;19921;-67
2022/06/29 01:53:16;;;;;;;;;;;;;;;23.06;71.98;99509.84;5033740;28;19962;-67
2022/06/29 01:55:46;;;;;;;;;;;;;;;23.01;71.85;99505.81;5033847;28;19960;-67
2022/06/29 01:58:15;;;;;;;;;;;;;;;22.97;71.95;99504.28;5034109;28;19921;-67
2022/06/29 02:00:52;;;;;;;;;;;;;;;22.93;71.89;99505.38;5033811;28;19929;-67
2022/06/29 02:03:21;;;;;;;;;;;;;;;22.92;72.09;99503.69;5033789;28;19975;-67
2022/06/29 02:05:49;;;;;;;;;;;;;;;22.92;72.25;99495.88;5033729;28;20046;-67
2022/06/29 02:08:26;;;;;;;;;;;;;;;22.98;72.22;99498.16;5033734;28;20354;-67
2022/06/29 02:10:56;;;;;;;;;;;;;;;22.98;72.47;99511.19;5033780;28;19999;-67
2022/06/29 02:13:34;;;;;;;;;;;;;;;23.02;72.11;99507.50;5033384;28;19921;-67
2022/06/29 02:16:12;;;;;;;;;;;;;;;23.00;72.07;99504.13;5034005;28;20421;-67
2022/06/29 02:18:40;;;;;;;;;;;;;;;22.94;72.12;99510.50;5015985;28;20016;-67
2022/06/29 02:21:12;;;;;;;;;;;;;;;22.90;72.16;99508.16;5033607;28;19921;-67
2022/06/29 02:23:40;;;;;;;;;;;;;;;22.84;72.24;99498.94;5033905;28;19920;-67
2022/06/29 02:26:10;;;;;;;;;;;;;;;22.80;72.26;99506.94;5033511;28;19920;-68
2022/06/29 02:28:45;;;;;;;;;;;;;;;22.81;72.32;99498.25;5033473;28;19921;-67
2022/06/29 02:36:34;;;;;;;;;;;;;;;22.74;72.20;99507.28;5033853;28;19967;-67
2022/06/29 02:39:03;;;;;;;;;;;;;;;22.71;72.21;99517.84;5033383;28;19928;-67
2022/06/29 02:41:33;;;;;;;;;;;;;;;22.68;72.32;99509.28;5033389;28;19928;-67
2022/06/29 02:44:01;;;;;;;;;;;;;;;22.67;72.42;99518.00;5035116;28;19936;-67
2022/06/29 02:46:30;;;;;;;;;;;;;;;22.65;72.45;99517.25;5037037;28;19925;-67
2022/06/29 02:48:59;;;;;;;;;;;;;;;22.65;72.48;99501.66;5036941;28;19920;-67
2022/06/29 02:51:27;;;;;;;;;;;;;;;22.64;72.58;99502.59;5036983;28;20405;-67
2022/06/29 02:53:56;;;;;;;;;;;;;;;22.67;72.76;99507.59;5036850;28;19928;-67
2022/06/29 02:56:24;;;;;;;;;;;;;;;22.68;72.76;99508.44;5036887;28;19921;-67
2022/06/29 02:58:54;;;;;;;;;;;;;;;22.66;72.84;99503.34;5036769;28;20381;-67
2022/06/29 03:01:26;;;;;;;;;;;;;;;22.66;72.85;99505.94;5036865;28;19928;-67
2022/06/29 03:03:55;;;;;;;;;;;;;;;22.68;73.07;99522.31;5037106;28;19933;-67
2022/06/29 03:06:23;;;;;;;;;;;;;;;22.70;72.89;99516.19;5036654;28;19971;-67
2022/06/29 03:08:52;;;;;;;;;;;;;;;22.69;72.86;99525.75;5036570;28;19952;-67
2022/06/29 03:11:20;;;;;;;;;;;;;;;22.73;72.87;99531.63;5036911;28;20378;-67
2022/06/29 03:13:49;;;;;;;;;;;;;;;22.73;72.82;99531.63;5036523;28;20425;-67
2022/06/29 03:16:18;;;;;;;;;;;;;;;22.70;72.85;99527.41;5036703;28;19921;-67
2022/06/29 03:18:47;;;;;;;;;;;;;;;22.70;72.81;99521.41;5036747;28;19924;-67
2022/06/29 03:21:16;;;;;;;;;;;;;;;22.73;72.79;99513.41;5036678;28;19925;-67
2022/06/29 03:23:51;;;;;;;;;;;;;;;22.76;72.78;99510.66;5036639;28;20286;-68
2022/06/29 03:26:19;;;;;;;;;;;;;;;22.78;72.71;99516.59;5036629;28;19927;-67
2022/06/29 03:28:52;;;;;;;;;;;;;;;22.80;72.75;99517.38;5036332;28;20410;-67
2022/06/29 03:31:23;;;;;;;;;;;;;;;22.77;72.85;99527.97;5036156;28;19925;-67
2022/06/29 03:33:51;;;;;;;;;;;;;;;22.79;72.73;99510.50;5036141;28;19921;-66
2022/06/29 03:36:23;;;;;;;;;;;;;;;22.80;72.79;99506.94;5036067;28;19921;-67
2022/06/29 03:38:51;;;;;;;;;;;;;;;22.81;72.78;99503.44;5036110;28;20373;-67
2022/06/29 03:41:20;;;;;;;;;;;;;;;22.79;72.84;99513.09;5036003;28;19921;-68
2022/06/29 03:43:48;;;;;;;;;;;;;;;22.79;72.84;99515.69;5036300;28;20040;-67
2022/06/29 03:46:20;;;;;;;;;;;;;;;22.81;72.89;99519.06;5035917;28;19921;-67
2022/06/29 03:48:50;;;;;;;;;;;;;;;22.80;72.79;99515.59;5036346;28;20036;-67
2022/06/29 03:51:18;;;;;;;;;;;;;;;22.84;72.74;99508.50;5035760;28;19921;-67
2022/06/29 03:53:53;;;;;;;;;;;;;;;22.86;72.74;99512.69;5035912;28;19928;-67
2022/06/29 03:56:24;;;;;;;;;;;;;;;22.85;72.84;99511.00;5017811;28;20362;-67
2022/06/29 03:58:53;;;;;;;;;;;;;;;22.90;72.97;99511.59;5036066;28;20397;-67
2022/06/29 04:01:30;;;;;;;;;;;;;;;22.93;72.96;99510.59;5035669;28;19963;-67
2022/06/29 04:04:00;;;;;;;;;;;;;;;22.92;73.01;99506.28;5035648;28;19921;-67
2022/06/29 04:06:29;;;;;;;;;;;;;;;22.97;73.12;99509.50;5035911;28;20272;-67
2022/06/29 04:08:57;;;;;;;;;;;;;;;22.99;73.11;99505.03;5035666;28;19975;-67
2022/06/29 04:14:13;;;;;;;;;;;;;;;23.06;73.09;99501.22;5035357;28;19920;-67
2022/06/29 04:16:42;;;;;;;;;;;;;;;23.07;73.08;99508.94;5035450;28;19964;-67
2022/06/29 04:19:12;;;;;;;;;;;;;;;23.18;73.10;99510.94;5035309;28;19921;-67
2022/06/29 04:21:41;;;;;;;;;;;;;;;23.23;72.79;99507.16;5035259;28;19921;-68
2022/06/29 04:24:09;;;;;;;;;;;;;;;23.27;72.89;99507.84;5035211;28;19975;-67
2022/06/29 04:26:38;;;;;;;;;;;;;;;23.33;72.71;99513.53;5035461;28;19991;-67
2022/06/29 04:29:06;;;;;;;;;;;;;;;23.39;72.44;99511.56;5035460;28;19924;-67
2022/06/29 04:31:35;;;;;;;;;;;;;;;23.44;72.39;99513.00;5035428;28;19982;-68
2022/06/29 04:34:04;;;;;;;;;;;;;;;23.50;72.29;99504.81;5035093;28;20003;-67
2022/06/29 04:36:37;;;;;;;;;;;;;;;23.61;72.15;99507.66;5035193;28;20382;-67
2022/06/29 04:39:06;;;;;;;;;;;;;;;23.69;71.85;99502.84;5035357;28;19920;-67
2022/06/29 04:41:37;;;;;;;;;;;;;;;23.73;71.76;99501.75;5035136;28;20285;-67
2022/06/29 04:44:09;;;;;;;;;;;;;;;23.83;71.31;99497.69;5034899;28;19921;-67
2022/06/29 04:46:37;;;;;;;;;;;;;;;23.90;71.25;99504.22;5034911;28;19921;-68
2022/06/29 04:49:06;;;;;;;;;;;;;;;23.95;70.96;99502.19;5034756;28;20375;-67
2022/06/29 04:51:35;;;;;;;;;;;;;;;24.06;70.52;99498.13;5034612;28;19921;-68
2022/06/29 04:54:05;;;;;;;;;;;;;;;24.15;70.15;99492.38;5034703;28;19928;-65
2022/06/29 04:56:35;;;;;;;;;;;;;;;24.26;70.04;99496.03;5034737;28;20393;-67
2022/06/29 04:59:04;;;;;;;;;;;;;;;24.35;69.76;99495.50;5034572;28;19921;-68
2022/06/29 05:01:33;;;;;;;;;;;;;;;24.39;69.12;99502.22;5034844;28;19921;-67
2022/06/29 05:04:01;;;;;;;;;;;;;;;24.45;68.90;99501.00;5034477;28;19921;-66
2022/06/29 05:06:39;;;;;;;;;;;;;;;24.56;68.53;99507.25;5033994;28;19921;-67
2022/06/29 05:09:09;;;;;;;;;;;;;;;24.64;68.58;99512.03;5034244;28;19921;-67
2022/06/29 05:11:37;;;;;;;;;;;;;;;24.71;68.38;99521.16;5035023;28;19921;-67
2022/06/29 05:14:06;;;;;;;;;;;;;;;24.81;67.96;99506.59;5033863;28;19921;-66
2022/06/29 05:16:35;;;;;;;;;;;;;;;24.89;67.76;99517.44;5034311;28;19928;-67
2022/06/29 05:19:04;;;;;;;;;;;;;;;24.95;67.41;99521.44;5034179;28;19921;-65
2022/06/29 05:21:32;;;;;;;;;;;;;;;25.01;67.14;99521.06;5034554;28;20367;-65
2022/06/29 05:24:01;;;;;;;;;;;;;;;25.04;66.79;99508.66;5034050;28;20011;-66
2022/06/29 05:26:37;;;;;;;;;;;;;;;25.12;66.62;99519.44;5034195;28;19948;-67
2022/06/29 05:29:06;;;;;;;;;;;;;;;25.18;66.75;99518.22;5034450;28;19983;-67
2022/06/29 05:31:34;;;;;;;;;;;;;;;25.24;66.63;99523.09;5034052;28;19921;-67
2022/06/29 05:34:03;;;;;;;;;;;;;;;25.27;66.24;99520.25;5033902;28;20015;-66
2022/06/29 05:36:31;;;;;;;;;;;;;;;25.36;66.39;99529.31;5033881;28;20440;-67
2022/06/29 05:39:00;;;;;;;;;;;;;;;25.47;66.30;99530.31;5033905;28;20382;-67
2022/06/29 05:41:39;;;;;;;;;;;;;;;25.55;65.58;99527.22;5033839;28;19932;-68
2022/06/29 05:44:07;;;;;;;;;;;;;;;25.57;65.32;99531.41;5033918;28;19927;-67
2022/06/29 05:46:36;;;;;;;;;;;;;;;25.67;64.93;99531.66;5034278;28;19968;-68
2022/06/29 05:49:04;;;;;;;;;;;;;;;25.77;64.64;99537.97;5033786;28;19921;-68
2022/06/29 05:51:33;;;;;;;;;;;;;;;25.83;64.45;99537.56;5033823;28;19921;-67
2022/06/29 05:54:04;;;;;;;;;;;;;;;25.90;63.79;99533.59;5033748;28;19976;-68
2022/06/29 05:56:33;;;;;;;;;;;;;;;25.94;63.65;99535.91;5034260;28;20347;-68
2022/06/29 05:59:03;;;;;;;;;;;;;;;26.04;63.57;99536.13;5034071;28;19927;-67
2022/06/29 06:01:31;;;;;;;;;;;;;;;26.14;62.90;99532.00;5034107;28;19928;-67
2022/06/29 06:04:01;;;;;;;;;;;;;;;26.20;63.10;99528.97;5034235;28;20270;-67
2022/06/29 06:06:29;;;;;;;;;;;;;;;26.30;63.17;99516.94;5033724;28;19925;-66
2022/06/29 06:08:58;;;;;;;;;;;;;;;26.38;62.75;99517.28;5033674;28;19921;-66
2022/06/29 06:11:26;;;;;;;;;;;;;;;26.47;62.25;99518.41;5033998;28;19928;-66
2022/06/29 06:13:55;;;;;;;;;;;;;;;26.52;62.16;99511.94;5033436;28;19924;-66
2022/06/29 06:16:26;;;;;;;;;;;;;;;26.60;61.68;99504.41;5033817;28;20386;-67
2022/06/29 06:19:08;;;;;;;;;;;;;;;26.73;61.61;99493.88;5035601;28;19921;-66
2022/06/29 06:21:36;;;;;;;;;;;;;;;26.82;61.05;99505.53;5037466;28;19921;-67
2022/06/29 06:24:06;;;;;;;;;;;;;;;26.78;60.37;99506.72;5037592;28;19921;-66
2022/06/29 06:26:34;;;;;;;;;;;;;;;26.86;60.92;99510.47;5037743;28;19921;-66
2022/06/29 06:29:02;;;;;;;;;;;;;;;27.00;60.45;99506.84;5037393;28;20016;-66
2022/06/29 06:31:34;;;;;;;;;;;;;;;27.14;60.43;99509.34;5037686;28;20321;-66
2022/06/29 06:34:03;;;;;;;;;;;;;;;27.26;59.82;99508.44;5037190;28;19927;-67
2022/06/29 06:36:31;;;;;;;;;;;;;;;27.30;59.35;99499.44;5037107;28;19921;-67
2022/06/29 06:39:09;;;;;;;;;;;;;;;27.31;59.35;99501.09;5037045;28;19933;-66
2022/06/29 06:41:51;;;;;;;;;;;;;;;27.39;59.43;99509.28;5037156;28;19921;-66
2022/06/29 06:44:19;;;;;;;;;;;;;;;27.46;59.29;99502.66;5037064;28;19925;-67
2022/06/29 06:46:49;;;;;;;;;;;;;;;27.55;58.88;99509.00;5037062;28;19949;-66
2022/06/29 06:49:23;;;;;;;;;;;;;;;27.65;58.63;99502.97;5037633;28;19921;-66
2022/06/29 06:51:52;;;;;;;;;;;;;;;27.75;57.88;99496.09;5037006;28;19948;-66
2022/06/29 06:54:24;;;;;;;;;;;;;;;27.82;57.38;99499.94;5036939;28;19921;-67
2022/06/29 06:56:52;;;;;;;;;;;;;;;27.87;57.28;99489.94;5036748;28;19921;-67
2022/06/29 06:59:20;;;;;;;;;;;;;;;28.00;56.87;99495.16;5036797;28;19927;-66
2022/06/29 07:01:50;;;;;;;;;;;;;;;28.09;56.80;99493.63;5037089;28;19921;-67
2022/06/29 07:04:19;;;;;;;;;;;;;;;28.20;56.43;99493.63;5037038;28;19927;-66
2022/06/29 07:06:48;;;;;;;;;;;;;;;28.34;56.42;99494.25;5036973;28;19921;-66
2022/06/29 07:09:16;;;;;;;;;;;;;;;28.43;56.14;99490.91;5036599;28;19925;-67
2022/06/29 07:11:45;;;;;;;;;;;;;;;28.51;55.82;99487.69;5036896;28;19921;-67
2022/06/29 07:14:13;;;;;;;;;;;;;;;28.61;55.51;99480.81;5036356;28;19976;-66
2022/06/29 07:16:42;;;;;;;;;;;;;;;28.72;55.02;99488.72;5036671;28;20278;-66
2022/06/29 07:19:12;;;;;;;;;;;;;;;28.75;54.92;99488.44;5036751;28;19927;-66
2022/06/29 07:21:44;;;;;;;;;;;;;;;28.91;54.70;99488.94;5036651;28;19925;-66
2022/06/29 07:24:12;;;;;;;;;;;;;;;29.09;54.06;99484.81;5036783;28;20012;-66
2022/06/29 07:26:40;;;;;;;;;;;;;;;29.22;54.09;99483.88;5036258;28;19932;-66
2022/06/29 07:29:09;;;;;;;;;;;;;;;29.26;53.32;99488.75;5036274;28;20015;-67
2022/06/29 07:31:37;;;;;;;;;;;;;;;29.32;53.25;99484.81;5035286;28;19921;-66
2022/06/29 07:34:07;;;;;;;;;;;;;;;29.32;53.23;99490.06;5036111;28;19948;-66
2022/06/29 07:36:37;;;;;;;;;;;;;;;29.42;53.75;99483.91;5035975;28;19925;-66
2022/06/29 07:39:05;;;;;;;;;;;;;;;29.49;53.29;99473.75;5036322;28;19920;-66
2022/06/29 07:41:35;;;;;;;;;;;;;;;29.59;53.59;99478.13;5036262;28;20274;-66
2022/06/29 07:44:04;;;;;;;;;;;;;;;29.55;52.75;99474.09;5036304;28;20024;-65
2022/06/29 07:46:32;;;;;;;;;;;;;;;29.56;52.60;99473.09;5035842;28;19921;-66
2022/06/29 07:49:02;;;;;;;;;;;;;;;29.66;52.58;99475.81;5033392;28;20383;-66
2022/06/29 07:51:31;;;;;;;;;;;;;;;29.81;52.66;99474.59;5035983;28;19925;-66
2022/06/29 07:54:02;;;;;;;;;;;;;;;29.90;52.17;99479.06;5035656;28;19925;-66
2022/06/29 07:56:33;;;;;;;;;;;;;;;30.05;52.45;99477.81;5035626;28;19947;-66
2022/06/29 07:59:07;;;;;;;;;;;;;;;29.99;52.30;99478.34;5035587;28;19921;-66
2022/06/29 08:01:35;;;;;;;;;;;;;;;30.13;52.60;99472.75;5035663;28;20342;-66
2022/06/29 08:04:04;;;;;;;;;;;;;;;30.34;51.97;99473.56;5035626;28;19921;-67
2022/06/29 08:06:32;;;;;;;;;;;;;;;30.49;51.35;99476.69;5035820;28;19920;-67
2022/06/29 08:09:03;;;;;;;;;;;;;;;30.60;50.73;99473.13;5035404;28;20337;-66
2022/06/29 08:11:31;;;;;;;;;;;;;;;30.86;51.18;99466.41;5044078;28;19920;-66
2022/06/29 08:14:00;;;;;;;;;;;;;;;30.79;50.02;99467.91;5052426;28;19974;-66
2022/06/29 08:16:29;;;;;;;;;;;;;;;30.77;49.70;99467.22;5035185;28;19921;-66
2022/06/29 08:18:58;;;;;;;;;;;;;;;30.70;49.64;99463.44;5035352;28;19968;-66
2022/06/29 08:21:26;;;;;;;;;;;;;;;30.80;49.50;99470.44;5035071;28;19968;-66
2022/06/29 08:23:55;;;;;;;;;;;;;;;30.84;49.36;99466.56;5035037;28;19990;-66
2022/06/29 08:26:25;;;;;;;;;;;;;;;30.97;49.61;99469.00;5035295;28;19920;-66
2022/06/29 08:29:14;;;;;;;;;;;;;;;31.13;49.59;99464.00;5017410;28;19925;-66
2022/06/29 08:31:43;;;;;;;;;;;;;;;31.25;49.71;99454.16;5034866;28;19935;-66
2022/06/29 08:34:12;;;;;;;;;;;;;;;31.30;48.79;99451.97;5034911;28;19925;-66
2022/06/29 08:36:40;;;;;;;;;;;;;;;31.51;49.01;99450.03;5035191;28;19921;-66
2022/06/29 08:39:17;;;;;;;;;;;;;;;31.74;48.23;99444.38;5034941;28;20291;-66
2022/06/29 08:41:48;;;;;;;;;;;;;;;31.81;47.70;99447.25;5034582;28;19921;-66
2022/06/29 08:44:18;;;;;;;;;;;;;;;31.86;46.73;99449.47;5034698;28;20016;-66
2022/06/29 08:46:46;;;;;;;;;;;;;;;31.91;46.88;99442.81;5034655;28;19921;-66
2022/06/29 08:49:15;;;;;;;;;;;;;;;31.96;46.84;99445.03;5034873;28;19921;-66
2022/06/29 08:51:45;;;;;;;;;;;;;;;32.08;47.39;99439.44;5038652;28;19967;-67
2022/06/29 08:54:15;;;;;;;;;;;;;;;32.17;47.40;99445.69;5034575;28;19921;-66
2022/06/29 08:56:43;;;;;;;;;;;;;;;32.37;46.42;99445.47;5034477;28;19971;-66
2022/06/29 08:59:13;;;;;;;;;;;;;;;32.59;45.82;99448.75;5034356;28;19921;-67
2022/06/29 09:01:42;;;;;;;;;;;;;;;32.59;44.65;99438.16;5034415;28;19921;-66
2022/06/29 09:04:10;;;;;;;;;;;;;;;32.78;44.40;99435.41;5034318;28;19967;-66
2022/06/29 09:06:39;;;;;;;;;;;;;;;32.88;43.80;99431.75;5034586;28;20018;-66
2022/06/29 09:09:07;;;;;;;;;;;;;;;33.06;43.83;99427.38;5034313;28;19927;-66
2022/06/29 09:11:40;;;;;;;;;;;;;;;33.29;44.66;99424.25;5034544;28;20466;-67
2022/06/29 09:14:11;;;;;;;;;;;;;;;33.29;44.11;99422.44;5034224;28;19947;-67
2022/06/29 09:16:50;;;;;;;;;;;;;;;33.26;42.80;99427.22;5034525;28;19995;-67
2022/06/29 09:19:21;;;;;;;;;;;;;;;33.52;43.03;99423.63;5034228;28;19935;-67
2022/06/29 09:21:50;;;;;;;;;;;;;;;33.55;43.50;99417.22;5033616;28;20024;-68
2022/06/29 09:24:20;;;;;;;;;;;;;;;33.46;42.88;99418.13;5034218;28;20008;-67
2022/06/29 09:26:52;;;;;;;;;;;;;;;33.25;42.82;99414.97;5034384;28;19971;-66
2022/06/29 09:29:22;;;;;;;;;;;;;;;33.07;42.29;99414.94;5034547;28;19951;-67
2022/06/29 09:32:01;;;;;;;;;;;;;;;32.90;42.89;99405.97;5033947;28;19971;-66
2022/06/29 09:34:32;;;;;;;;;;;;;;;33.06;44.25;99410.66;5034111;28;19921;-66
2022/06/29 09:37:01;;;;;;;;;;;;;;;33.22;45.42;99407.31;5034651;28;19964;-66
2022/06/29 09:39:33;;;;;;;;;;;;;;;33.33;45.65;99410.56;5049222;28;19921;-67
2022/06/29 09:42:02;;;;;;;;;;;;;;;33.39;44.02;99412.63;5033939;28;19975;-66
2022/06/29 09:44:31;;;;;;;;;;;;;;;33.28;41.60;99412.03;5033877;28;19956;-66
2022/06/29 09:47:02;;;;;;;;;;;;;;;33.24;41.43;99405.34;5033948;28;19961;-67
2022/06/29 09:49:33;;;;;;;;;;;;;;;33.41;42.13;99407.16;5033993;28;19927;-66
2022/06/29 09:52:03;;;;;;;;;;;;;;;33.49;41.00;99408.06;5034223;28;19921;-67
2022/06/29 09:54:33;;;;;;;;;;;;;;;33.37;40.11;99395.22;5033279;28;19960;-66
2022/06/29 09:57:08;;;;;;;;;;;;;;;33.26;40.18;99406.88;5033777;28;20012;-67
2022/06/29 10:05:04;;;;;;;;;;;;;;;32.71;39.82;99395.53;5034008;28;19929;-66
2022/06/29 10:07:34;;;;;;;;;;;;;;;32.77;42.25;99391.47;5033726;28;19921;-66
2022/06/29 10:10:07;;;;;;;;;;;;;;;32.73;41.09;99388.28;5033612;28;19927;-66
2022/06/29 10:15:43;;;;;;;;;;;;;;;33.14;38.03;99388.75;5033677;28;19925;-66
2022/06/29 10:18:17;;;;;;;;;;;;;;;33.08;36.94;99388.34;5033888;28;20306;-65
2022/06/29 10:20:48;;;;;;;;;;;;;;;32.91;36.84;99385.66;5033691;28;19921;-66
2022/06/29 10:23:32;;;;;;;;;;;;;;;32.83;36.56;99380.28;5033871;28;19983;-66
2022/06/29 10:26:01;;;;;;;;;;;;;;;32.73;37.59;99382.97;5033325;28;20016;-69
2022/06/29 10:28:30;;;;;;;;;;;;;;;32.65;37.75;99380.28;5033560;28;19928;-67
2022/06/29 10:30:59;;;;;;;;;;;;;;;32.57;37.46;99372.25;5033756;28;19928;-67
2022/06/29 10:33:31;;;;;;;;;;;;;;;32.54;37.36;99367.22;5033715;28;19928;-67
2022/06/29 10:36:05;;;;;;;;;;;;;;;32.65;37.74;99358.28;5033395;28;19921;-67
2022/06/29 10:38:53;;;;;;;;;;;;;;;32.92;39.33;99356.41;5033790;28;20011;-68
2022/06/29 10:44:07;;;;;;;;;;;;;;;33.10;38.57;99351.16;5003312;28;19944;-68
2022/06/29 10:46:50;;;;;;;;;;;;;;;33.19;38.23;99357.34;5033716;28;19925;-68
2022/06/29 10:49:28;;;;;;;;;;;;;;;33.17;36.59;99359.31;5033269;28;19921;-68
2022/06/29 10:51:58;;;;;;;;;;;;;;;33.31;36.36;99356.13;5033345;28;19921;-68
2022/06/29 10:54:29;;;;;;;;;;;;;;;33.43;35.41;99346.94;5033371;28;19927;-67
2022/06/29 10:56:59;;;;;;;;;;;;;;;33.36;35.39;99344.09;5033572;28;20425;-67
2022/06/29 10:59:33;;;;;;;;;;;;;;;33.30;35.54;99343.88;5033520;28;20251;-67
2022/06/29 11:02:08;;;;;;;;;;;;;;;33.35;34.88;99338.97;5033575;28;19921;-67
2022/06/29 11:04:37;;;;;;;;;;;;;;;33.54;35.56;99341.47;5033553;28;19988;-67
2022/06/29 11:12:27;;;;;;;;;;;;;;;33.91;34.70;99326.09;5036442;28;19921;-68
2022/06/29 11:17:45;;;;;;;;;;;;;;;33.82;34.76;99316.47;5035670;28;19928;-67
2022/06/29 11:20:17;;;;;;;;;;;;;;;33.65;34.58;99318.19;5036564;28;19921;-68
2022/06/29 11:22:53;;;;;;;;;;;;;;;33.56;34.91;99318.31;5036420;28;19925;-67
2022/06/29 11:25:22;;;;;;;;;;;;;;;33.55;35.29;99311.34;5036507;28;20020;-67
2022/06/29 11:27:53;;;;;;;;;;;;;;;33.64;35.49;99310.41;5036348;28;20001;-68
2022/06/29 11:30:22;;;;;;;;;;;;;;;33.77;34.66;99300.22;5036616;28;19948;-67
2022/06/29 11:32:51;;;;;;;;;;;;;;;33.69;35.00;99313.41;5036664;28;20371;-68
2022/06/29 11:35:39;;;;;;;;;;;;;;;33.55;34.86;99306.03;5036072;28;19921;-67
2022/06/29 11:38:11;;;;;;;;;;;;;;;33.40;35.37;99307.56;5036478;28;20421;-68
2022/06/29 11:40:41;;;;;;;;;;;;;;;33.27;35.65;99297.38;5036091;28;20015;-68
2022/06/29 11:43:14;;;;;;;;;;;;;;;33.26;35.50;99289.63;5036754;28;19960;-69
2022/06/29 11:45:44;;;;;;;;;;;;;;;33.28;35.57;99293.75;5036355;28;20363;-67
2022/06/29 11:48:17;;;;;;;;;;;;;;;33.45;35.50;99284.94;5036318;28;20013;-68
2022/06/29 11:50:47;;;;;;;;;;;;;;;33.60;35.29;99285.22;5051308;28;20016;-68
2022/06/29 11:53:27;;;;;;;;;;;;;;;33.55;34.74;99279.56;5036578;28;19924;-68
2022/06/29 11:55:58;;;;;;;;;;;;;;;33.72;34.88;99289.25;5035950;28;19925;-68
2022/06/29 11:58:27;;;;;;;;;;;;;;;33.97;34.07;99291.06;5036124;28;19943;-69
2022/06/29 12:00:55;;;;;;;;;;;;;;;33.96;33.91;99278.78;5035654;28;19928;-67
2022/06/29 12:03:24;;;;;;;;;;;;;;;34.05;34.06;99283.16;5035972;28;19921;-68
2022/06/29 12:05:57;;;;;;;;;;;;;;;34.19;33.74;99281.72;5035873;28;20413;-68
2022/06/29 12:08:27;;;;;;;;;;;;;;;34.26;33.18;99275.63;5035624;28;20007;-68
2022/06/29 12:10:57;;;;;;;;;;;;;;;34.34;32.87;99272.97;5035521;28;19971;-68
2022/06/29 12:13:26;;;;;;;;;;;;;;;34.30;32.63;99266.34;5035072;28;19974;-68
2022/06/29 12:15:55;;;;;;;;;;;;;;;34.37;32.88;99263.88;5035098;28;20379;-69
2022/06/29 12:18:23;;;;;;;;;;;;;;;34.58;33.27;99258.16;5035399;28;20012;-68
2022/06/29 12:20:52;;;;;;;;;;;;;;;34.83;33.56;99251.88;5035545;28;20367;-68
2022/06/29 12:23:21;;;;;;;;;;;;;;;34.96;32.95;99247.72;5035255;28;19921;-68
2022/06/29 12:25:49;;;;;;;;;;;;;;;34.97;32.09;99237.94;5035212;28;19975;-69
2022/06/29 12:28:19;;;;;;;;;;;;;;;34.95;31.89;99234.63;5035194;28;19921;-68
2022/06/29 12:30:48;;;;;;;;;;;;;;;34.92;31.97;99234.94;5035771;28;20351;-68
2022/06/29 12:33:17;;;;;;;;;;;;;;;34.91;31.75;99233.31;5035963;28;19940;-69
2022/06/29 12:35:45;;;;;;;;;;;;;;;34.90;31.60;99231.63;5034933;28;19921;-69
2022/06/29 12:38:14;;;;;;;;;;;;;;;34.87;31.61;99224.00;5035064;28;19921;-67
2022/06/29 12:40:43;;;;;;;;;;;;;;;34.88;31.83;99220.38;5034847;28;19924;-68
2022/06/29 12:43:12;;;;;;;;;;;;;;;34.95;31.49;99219.53;5034935;28;19921;-68
2022/06/29 12:45:44;;;;;;;;;;;;;;;35.00;31.28;99209.25;5035130;28;19921;-68
2022/06/29 12:48:13;;;;;;;;;;;;;;;35.06;31.26;99215.72;5035155;28;19928;-70
2022/06/29 12:50:42;;;;;;;;;;;;;;;35.08;30.59;99208.44;5034830;28;19921;-68
2022/06/29 12:53:11;;;;;;;;;;;;;;;35.10;30.38;99202.97;5034684;28;19921;-68
2022/06/29 12:55:40;;;;;;;;;;;;;;;35.14;30.43;99202.44;5034982;28;20347;-68
2022/06/29 12:58:08;;;;;;;;;;;;;;;35.22;30.80;99204.25;5034770;28;19921;-68
2022/06/29 13:00:37;;;;;;;;;;;;;;;35.25;30.80;99199.44;5034695;28;20003;-69
2022/06/29 13:03:07;;;;;;;;;;;;;;;35.24;30.33;99192.47;5034878;28;19928;-67
2022/06/29 13:05:36;;;;;;;;;;;;;;;35.17;30.65;99196.81;5035195;28;20019;-68
2022/06/29 13:08:05;;;;;;;;;;;;;;;35.22;30.77;99188.34;5034807;28;20031;-67
2022/06/29 13:10:34;;;;;;;;;;;;;;;35.20;30.50;99185.88;5034415;28;19921;-68
2022/06/29 13:13:03;;;;;;;;;;;;;;;35.21;30.74;99192.81;5032166;28;20385;-68
2022/06/29 13:15:35;;;;;;;;;;;;;;;35.21;30.35;99182.19;5034390;28;20421;-68
2022/06/29 13:18:04;;;;;;;;;;;;;;;35.17;30.77;99180.88;5034354;28;19921;-68
2022/06/29 13:20:34;;;;;;;;;;;;;;;35.08;30.53;99181.91;5034259;28;19927;-68
2022/06/29 13:23:03;;;;;;;;;;;;;;;35.08;30.68;99173.94;5034829;28;19967;-69
2022/06/29 13:25:31;;;;;;;;;;;;;;;35.09;30.51;99175.59;5034560;28;20012;-68
2022/06/29 13:28:00;;;;;;;;;;;;;;;35.05;30.82;99176.09;5033337;28;19921;-68
2022/06/29 13:30:28;;;;;;;;;;;;;;;35.01;30.57;99170.25;5034374;28;19925;-68